Acton, MA

12:03 PM EDT on August 28, 2014 (GMT -0400)
Hanscom | Change Station
CLOSE
Current Station
Airport
Location: Bedford,
Elevation: 135 ft
Nearby Weather Stations

Elev 135 ft 42.47 °N, 71.29 °W | Updated 7 minutes ago

Scattered Clouds
Scattered Clouds
77 °F
Feels Like 77 °F
N
14
Wind Variable Wind from North

Today
High -- | Low -- °F
--% Chance of Precip.
Yesterday
High -- | Low -- °F
Precip. -- in
6:06 AM 7:26 PM
Waxing Crescent, 8% visible
Pressure 29.84 in
Visibility 10.0 miles
Clouds Scattered Clouds 4400 ft
Dew Point 55 °F
Humidity 47%
Rainfall 0.00 in
Snow Depth Not available.
UV 7 out of 12
Pollen 10.00 out of 12
Air Quality Not available.
Flu Activity Not available.
METAR KBED 281556Z 35012KT 10SM SCT044 25/13 A2981 RMK AO2 SLP103 T02500128 $

More Conditions Fewer Conditions

Pressure 29.84 in
Visibility 10.0 miles
Clouds Scattered Clouds 4400 ft
Dew Point 55 °F
Humidity 47%
Rainfall 0.00 in
Snow Depth Not available.
UV 7 out of 12
Pollen 10.00 out of 12
Air Quality Not available.
Flu Activity Not available.
METAR KBED 281556Z 35012KT 10SM SCT044 25/13 A2981 RMK AO2 SLP103 T02500128 $

More Conditions Fewer Conditions

10-Day Weather Forecast

Almanac

Astronomy

Aug. 28, 2014 Rise Set
Actual Time 6:06 AM EDT 7:26 PM EDT
Civil Twilight 5:37 AM EDT 7:55 PM EDT
Nautical Twilight 5:01 AM EDT 8:30 PM EDT
Astronomical Twilight 4:24 AM EDT 9:07 PM EDT
Moon 9:00 AM EDT 8:44 PM EDT
Length of Visible Light 14h 18m
Length of Day
13h 20m
Tomorrow will be 2m 44s shorter.
Waxing Crescent, 8% of the Moon is Illuminated
Today
Waxing Crescent
Sep 2
First Quarter
Sep 8
Full
Sep 15
Last Quarter
Sep 24
New

Today's Extremes

State Highs State Lows

Community

WunderPhotos

Upload Photos

1,747,998 photos uploaded!

Nearby

Air Quality

  Air Quality AQ Index Pollutant
Thursday Good
PM2.5
Thursday Good
OZONE

Snow Depth

Station Depth Elevation
No new snow has been reported.

Earthquake Activity

City Distance Mag. Time & Date
No recent earthquake activity has been reported nearby.
Minimum magnitude displayed is 2.5.

Coastal Water Temperatures

Place Temperature
Boston, MA 69.1 °F
Providence, RI 72.0 °F
Fall River, MA 73.9 °F
Conimicut Light, RI 73.0 °F

Nearby Weather Stations